sensor_id;sensor_type;location;lat;lon;timestamp;P1;durP1;ratioP1;P2;durP2;ratioP2
72053;SDS011;59918;51.280;7.950;2022-10-20T00:01:17;13.07;;;8.23;;
72053;SDS011;59918;51.280;7.950;2022-10-20T00:03:44;10.02;;;7.63;;
72053;SDS011;59918;51.280;7.950;2022-10-20T00:06:14;9.50;;;7.45;;
72053;SDS011;59918;51.280;7.950;2022-10-20T00:08:42;11.75;;;7.47;;
72053;SDS011;59918;51.280;7.950;2022-10-20T00:11:09;13.10;;;7.75;;
72053;SDS011;59918;51.280;7.950;2022-10-20T00:13:36;12.68;;;8.40;;
72053;SDS011;59918;51.280;7.950;2022-10-20T00:16:02;13.38;;;8.32;;
72053;SDS011;59918;51.280;7.950;2022-10-20T00:18:28;11.32;;;7.50;;
72053;SDS011;59918;51.280;7.950;2022-10-20T00:20:53;11.93;;;8.40;;
72053;SDS011;59918;51.280;7.950;2022-10-20T00:23:19;14.35;;;8.50;;
72053;SDS011;59918;51.280;7.950;2022-10-20T00:25:45;15.38;;;9.07;;
72053;SDS011;59918;51.280;7.950;2022-10-20T00:28:13;11.48;;;8.48;;
72053;SDS011;59918;51.280;7.950;2022-10-20T00:30:38;12.82;;;9.18;;
72053;SDS011;59918;51.280;7.950;2022-10-20T00:33:04;13.75;;;9.93;;
72053;SDS011;59918;51.280;7.950;2022-10-20T00:35:30;13.27;;;9.38;;
72053;SDS011;59918;51.280;7.950;2022-10-20T00:37:56;13.27;;;9.68;;
72053;SDS011;59918;51.280;7.950;2022-10-20T00:40:22;12.98;;;8.95;;
72053;SDS011;59918;51.280;7.950;2022-10-20T00:42:48;23.60;;;9.70;;
72053;SDS011;59918;51.280;7.950;2022-10-20T00:45:17;15.18;;;9.40;;
72053;SDS011;59918;51.280;7.950;2022-10-20T00:47:46;13.48;;;9.15;;
72053;SDS011;59918;51.280;7.950;2022-10-20T00:50:16;17.63;;;9.65;;
72053;SDS011;59918;51.280;7.950;2022-10-20T00:52:42;16.85;;;10.15;;
72053;SDS011;59918;51.280;7.950;2022-10-20T00:55:09;12.38;;;8.93;;
72053;SDS011;59918;51.280;7.950;2022-10-20T00:57:36;12.75;;;8.75;;
72053;SDS011;59918;51.280;7.950;2022-10-20T01:00:03;14.70;;;8.90;;
72053;SDS011;59918;51.280;7.950;2022-10-20T01:02:29;10.93;;;8.20;;
72053;SDS011;59918;51.280;7.950;2022-10-20T01:04:55;14.32;;;8.75;;
72053;SDS011;59918;51.280;7.950;2022-10-20T01:07:20;14.90;;;9.77;;
72053;SDS011;59918;51.280;7.950;2022-10-20T01:09:45;13.52;;;8.70;;
72053;SDS011;59918;51.280;7.950;2022-10-20T01:25:39;13.02;;;8.13;;
72053;SDS011;59918;51.280;7.950;2022-10-20T01:28:11;12.77;;;8.68;;
72053;SDS011;59918;51.280;7.950;2022-10-20T01:30:45;12.93;;;8.07;;
72053;SDS011;59918;51.280;7.950;2022-10-20T01:33:22;14.60;;;8.32;;
72053;SDS011;59918;51.280;7.950;2022-10-20T01:38:26;11.93;;;8.40;;
72053;SDS011;59918;51.280;7.950;2022-10-20T01:43:56;11.50;;;7.85;;
72053;SDS011;59918;51.280;7.950;2022-10-20T01:46:21;12.48;;;8.48;;
72053;SDS011;59918;51.280;7.950;2022-10-20T01:48:49;14.27;;;8.50;;
72053;SDS011;59918;51.280;7.950;2022-10-20T01:51:15;11.35;;;8.05;;
72053;SDS011;59918;51.280;7.950;2022-10-20T01:53:42;12.27;;;8.30;;
72053;SDS011;59918;51.280;7.950;2022-10-20T01:56:15;15.88;;;8.63;;
72053;SDS011;59918;51.280;7.950;2022-10-20T02:03:58;12.02;;;7.57;;
72053;SDS011;59918;51.280;7.950;2022-10-20T02:09:31;11.27;;;7.28;;
72053;SDS011;59918;51.280;7.950;2022-10-20T02:12:10;11.88;;;8.20;;
72053;SDS011;59918;51.280;7.950;2022-10-20T02:14:41;10.40;;;7.07;;
72053;SDS011;59918;51.280;7.950;2022-10-20T02:17:09;13.27;;;7.00;;
72053;SDS011;59918;51.280;7.950;2022-10-20T02:19:39;10.63;;;7.20;;
72053;SDS011;59918;51.280;7.950;2022-10-20T02:22:06;11.25;;;8.38;;
72053;SDS011;59918;51.280;7.950;2022-10-20T02:24:34;12.57;;;7.85;;
72053;SDS011;59918;51.280;7.950;2022-10-20T02:27:03;8.30;;;6.55;;
72053;SDS011;59918;51.280;7.950;2022-10-20T02:29:38;10.60;;;6.57;;
72053;SDS011;59918;51.280;7.950;2022-10-20T02:32:08;8.82;;;6.65;;
72053;SDS011;59918;51.280;7.950;2022-10-20T02:34:39;9.23;;;7.05;;
72053;SDS011;59918;51.280;7.950;2022-10-20T02:37:05;7.80;;;6.53;;
72053;SDS011;59918;51.280;7.950;2022-10-20T02:39:30;11.30;;;6.60;;
72053;SDS011;59918;51.280;7.950;2022-10-20T02:41:56;9.90;;;6.43;;
72053;SDS011;59918;51.280;7.950;2022-10-20T02:44:21;8.13;;;6.72;;
72053;SDS011;59918;51.280;7.950;2022-10-20T02:46:46;9.25;;;6.85;;
72053;SDS011;59918;51.280;7.950;2022-10-20T02:49:11;8.32;;;6.40;;
72053;SDS011;59918;51.280;7.950;2022-10-20T02:51:37;10.00;;;5.38;;
72053;SDS011;59918;51.280;7.950;2022-10-20T02:54:02;10.50;;;6.03;;
72053;SDS011;59918;51.280;7.950;2022-10-20T02:56:27;7.82;;;5.32;;
72053;SDS011;59918;51.280;7.950;2022-10-20T02:58:52;12.23;;;5.97;;
72053;SDS011;59918;51.280;7.950;2022-10-20T03:01:18;8.88;;;5.93;;
72053;SDS011;59918;51.280;7.950;2022-10-20T03:03:43;7.90;;;5.68;;
72053;SDS011;59918;51.280;7.950;2022-10-20T03:06:09;10.75;;;5.95;;
72053;SDS011;59918;51.280;7.950;2022-10-20T03:08:36;7.07;;;4.82;;
72053;SDS011;59918;51.280;7.950;2022-10-20T03:11:01;7.03;;;5.00;;
72053;SDS011;59918;51.280;7.950;2022-10-20T03:13:26;8.95;;;5.55;;
72053;SDS011;59918;51.280;7.950;2022-10-20T03:15:52;8.93;;;5.10;;
72053;SDS011;59918;51.280;7.950;2022-10-20T03:18:17;9.27;;;5.20;;
72053;SDS011;59918;51.280;7.950;2022-10-20T03:20:42;6.65;;;4.60;;
72053;SDS011;59918;51.280;7.950;2022-10-20T03:23:08;9.05;;;4.43;;
72053;SDS011;59918;51.280;7.950;2022-10-20T03:25:33;5.50;;;5.00;;
72053;SDS011;59918;51.280;7.950;2022-10-20T03:27:58;10.90;;;4.50;;
72053;SDS011;59918;51.280;7.950;2022-10-20T03:30:23;4.68;;;4.18;;
72053;SDS011;59918;51.280;7.950;2022-10-20T03:32:49;5.07;;;4.60;;
72053;SDS011;59918;51.280;7.950;2022-10-20T03:35:14;5.57;;;4.43;;
72053;SDS011;59918;51.280;7.950;2022-10-20T03:37:40;5.88;;;4.93;;
72053;SDS011;59918;51.280;7.950;2022-10-20T03:40:05;6.47;;;4.70;;
72053;SDS011;59918;51.280;7.950;2022-10-20T03:42:30;6.05;;;5.03;;
72053;SDS011;59918;51.280;7.950;2022-10-20T03:44:56;6.63;;;4.25;;
72053;SDS011;59918;51.280;7.950;2022-10-20T03:47:21;6.20;;;4.50;;
72053;SDS011;59918;51.280;7.950;2022-10-20T03:49:47;4.30;;;4.00;;
72053;SDS011;59918;51.280;7.950;2022-10-20T03:52:12;4.47;;;4.13;;
72053;SDS011;59918;51.280;7.950;2022-10-20T03:54:37;4.30;;;3.90;;
72053;SDS011;59918;51.280;7.950;2022-10-20T03:57:02;4.40;;;3.90;;
72053;SDS011;59918;51.280;7.950;2022-10-20T03:59:28;5.40;;;3.97;;
72053;SDS011;59918;51.280;7.950;2022-10-20T04:01:53;5.88;;;4.00;;
72053;SDS011;59918;51.280;7.950;2022-10-20T04:04:18;7.38;;;3.35;;
72053;SDS011;59918;51.280;7.950;2022-10-20T04:06:43;7.80;;;3.83;;
72053;SDS011;59918;51.280;7.950;2022-10-20T04:09:09;5.63;;;4.35;;
72053;SDS011;59918;51.280;7.950;2022-10-20T04:11:34;8.90;;;3.83;;
72053;SDS011;59918;51.280;7.950;2022-10-20T04:14:01;5.03;;;3.80;;
72053;SDS011;59918;51.280;7.950;2022-10-20T04:16:27;3.83;;;3.35;;
72053;SDS011;59918;51.280;7.950;2022-10-20T04:18:52;4.15;;;3.42;;
72053;SDS011;59918;51.280;7.950;2022-10-20T04:21:18;3.00;;;2.70;;
72053;SDS011;59918;51.280;7.950;2022-10-20T04:23:43;4.00;;;3.58;;
72053;SDS011;59918;51.280;7.950;2022-10-20T04:26:09;4.07;;;3.40;;
72053;SDS011;59918;51.280;7.950;2022-10-20T04:28:35;4.78;;;3.58;;
72053;SDS011;59918;51.280;7.950;2022-10-20T04:31:03;6.05;;;3.35;;
72053;SDS011;59918;51.280;7.950;2022-10-20T04:33:29;3.67;;;3.13;;
72053;SDS011;59918;51.280;7.950;2022-10-20T04:35:58;4.03;;;3.47;;
72053;SDS011;59918;51.280;7.950;2022-10-20T04:38:25;3.67;;;3.35;;
72053;SDS011;59918;51.280;7.950;2022-10-20T04:40:54;3.80;;;3.35;;
72053;SDS011;59918;51.280;7.950;2022-10-20T04:43:23;6.97;;;3.08;;
72053;SDS011;59918;51.280;7.950;2022-10-20T04:45:49;4.22;;;3.40;;
72053;SDS011;59918;51.280;7.950;2022-10-20T04:48:14;5.47;;;3.60;;
72053;SDS011;59918;51.280;7.950;2022-10-20T04:50:40;6.95;;;3.50;;
72053;SDS011;59918;51.280;7.950;2022-10-20T04:53:06;5.25;;;3.72;;
72053;SDS011;59918;51.280;7.950;2022-10-20T04:55:32;6.22;;;3.10;;
72053;SDS011;59918;51.280;7.950;2022-10-20T04:57:57;4.38;;;3.70;;
72053;SDS011;59918;51.280;7.950;2022-10-20T05:00:22;4.70;;;4.25;;
72053;SDS011;59918;51.280;7.950;2022-10-20T05:02:47;5.60;;;4.22;;
72053;SDS011;59918;51.280;7.950;2022-10-20T05:05:15;4.40;;;3.90;;
72053;SDS011;59918;51.280;7.950;2022-10-20T05:07:40;5.13;;;4.25;;
72053;SDS011;59918;51.280;7.950;2022-10-20T05:10:05;5.35;;;4.43;;
72053;SDS011;59918;51.280;7.950;2022-10-20T05:12:31;6.90;;;4.60;;
72053;SDS011;59918;51.280;7.950;2022-10-20T05:14:58;5.20;;;4.68;;
72053;SDS011;59918;51.280;7.950;2022-10-20T05:17:24;10.63;;;5.05;;
72053;SDS011;59918;51.280;7.950;2022-10-20T05:19:49;6.93;;;5.00;;
72053;SDS011;59918;51.280;7.950;2022-10-20T05:22:15;6.18;;;5.03;;
72053;SDS011;59918;51.280;7.950;2022-10-20T05:24:40;6.13;;;5.38;;
72053;SDS011;59918;51.280;7.950;2022-10-20T05:27:05;10.85;;;6.05;;
72053;SDS011;59918;51.280;7.950;2022-10-20T05:29:30;8.38;;;6.40;;
72053;SDS011;59918;51.280;7.950;2022-10-20T05:31:55;8.45;;;7.03;;
72053;SDS011;59918;51.280;7.950;2022-10-20T05:34:21;11.82;;;7.30;;
72053;SDS011;59918;51.280;7.950;2022-10-20T05:36:46;10.10;;;7.60;;
72053;SDS011;59918;51.280;7.950;2022-10-20T05:39:11;11.32;;;7.40;;
72053;SDS011;59918;51.280;7.950;2022-10-20T05:41:37;10.63;;;7.03;;
72053;SDS011;59918;51.280;7.950;2022-10-20T05:44:05;10.85;;;7.20;;
72053;SDS011;59918;51.280;7.950;2022-10-20T05:46:33;11.85;;;7.65;;
72053;SDS011;59918;51.280;7.950;2022-10-20T05:49:00;12.73;;;8.02;;
72053;SDS011;59918;51.280;7.950;2022-10-20T05:51:28;11.50;;;8.43;;
72053;SDS011;59918;51.280;7.950;2022-10-20T05:53:55;11.60;;;7.85;;
72053;SDS011;59918;51.280;7.950;2022-10-20T05:56:22;15.40;;;7.07;;
72053;SDS011;59918;51.280;7.950;2022-10-20T05:58:49;11.85;;;8.15;;
72053;SDS011;59918;51.280;7.950;2022-10-20T06:06:16;13.35;;;8.20;;
72053;SDS011;59918;51.280;7.950;2022-10-20T06:08:42;9.55;;;7.28;;
72053;SDS011;59918;51.280;7.950;2022-10-20T06:11:08;12.48;;;7.63;;
72053;SDS011;59918;51.280;7.950;2022-10-20T06:13:34;14.05;;;8.55;;
72053;SDS011;59918;51.280;7.950;2022-10-20T06:16:01;11.48;;;8.77;;
72053;SDS011;59918;51.280;7.950;2022-10-20T06:18:33;12.02;;;7.57;;
72053;SDS011;59918;51.280;7.950;2022-10-20T06:21:00;14.60;;;8.32;;
72053;SDS011;59918;51.280;7.950;2022-10-20T06:23:29;13.02;;;8.38;;
72053;SDS011;59918;51.280;7.950;2022-10-20T06:25:59;12.35;;;8.63;;
72053;SDS011;59918;51.280;7.950;2022-10-20T06:28:32;12.00;;;8.25;;
72053;SDS011;59918;51.280;7.950;2022-10-20T06:30:59;10.98;;;7.25;;
72053;SDS011;59918;51.280;7.950;2022-10-20T06:33:24;13.27;;;7.43;;
72053;SDS011;59918;51.280;7.950;2022-10-20T06:35:57;12.27;;;7.35;;
72053;SDS011;59918;51.280;7.950;2022-10-20T06:38:23;12.43;;;7.38;;
72053;SDS011;59918;51.280;7.950;2022-10-20T06:40:48;8.20;;;7.38;;
72053;SDS011;59918;51.280;7.950;2022-10-20T06:43:13;10.52;;;8.00;;
72053;SDS011;59918;51.280;7.950;2022-10-20T06:45:41;14.98;;;7.50;;
72053;SDS011;59918;51.280;7.950;2022-10-20T06:48:07;11.52;;;8.48;;
72053;SDS011;59918;51.280;7.950;2022-10-20T06:50:32;10.70;;;7.80;;
72053;SDS011;59918;51.280;7.950;2022-10-20T06:52:58;15.68;;;9.07;;
72053;SDS011;59918;51.280;7.950;2022-10-20T06:55:24;12.95;;;7.68;;
72053;SDS011;59918;51.280;7.950;2022-10-20T06:57:49;10.02;;;7.95;;
72053;SDS011;59918;51.280;7.950;2022-10-20T07:00:14;10.00;;;8.35;;
72053;SDS011;59918;51.280;7.950;2022-10-20T07:02:39;10.35;;;7.43;;
72053;SDS011;59918;51.280;7.950;2022-10-20T07:05:05;11.43;;;8.05;;
72053;SDS011;59918;51.280;7.950;2022-10-20T07:07:31;10.85;;;7.90;;
72053;SDS011;59918;51.280;7.950;2022-10-20T07:09:56;13.68;;;9.02;;
72053;SDS011;59918;51.280;7.950;2022-10-20T07:12:22;15.07;;;8.27;;
72053;SDS011;59918;51.280;7.950;2022-10-20T07:14:49;9.80;;;7.28;;
72053;SDS011;59918;51.280;7.950;2022-10-20T07:17:14;11.15;;;8.10;;
72053;SDS011;59918;51.280;7.950;2022-10-20T07:19:39;12.90;;;8.48;;
72053;SDS011;59918;51.280;7.950;2022-10-20T07:22:05;16.92;;;8.68;;
72053;SDS011;59918;51.280;7.950;2022-10-20T07:24:30;13.63;;;8.43;;
72053;SDS011;59918;51.280;7.950;2022-10-20T07:26:55;14.38;;;9.30;;
72053;SDS011;59918;51.280;7.950;2022-10-20T07:29:21;11.52;;;9.07;;
72053;SDS011;59918;51.280;7.950;2022-10-20T07:31:46;14.38;;;9.13;;
72053;SDS011;59918;51.280;7.950;2022-10-20T07:34:13;10.68;;;8.43;;
72053;SDS011;59918;51.280;7.950;2022-10-20T07:36:40;9.43;;;7.53;;
72053;SDS011;59918;51.280;7.950;2022-10-20T07:39:07;9.68;;;8.18;;
72053;SDS011;59918;51.280;7.950;2022-10-20T07:41:32;11.50;;;8.57;;
72053;SDS011;59918;51.280;7.950;2022-10-20T07:44:00;13.57;;;9.23;;
72053;SDS011;59918;51.280;7.950;2022-10-20T07:46:26;11.10;;;9.00;;
72053;SDS011;59918;51.280;7.950;2022-10-20T07:48:51;16.40;;;8.85;;
72053;SDS011;59918;51.280;7.950;2022-10-20T07:53:48;11.38;;;8.70;;
72053;SDS011;59918;51.280;7.950;2022-10-20T07:56:14;13.38;;;8.90;;
72053;SDS011;59918;51.280;7.950;2022-10-20T07:58:40;10.25;;;8.30;;
72053;SDS011;59918;51.280;7.950;2022-10-20T08:01:05;11.98;;;8.35;;
72053;SDS011;59918;51.280;7.950;2022-10-20T08:03:32;14.70;;;8.70;;
72053;SDS011;59918;51.280;7.950;2022-10-20T08:05:57;13.13;;;8.30;;
72053;SDS011;59918;51.280;7.950;2022-10-20T08:08:22;15.38;;;8.55;;
72053;SDS011;59918;51.280;7.950;2022-10-20T08:10:50;11.30;;;7.80;;
72053;SDS011;59918;51.280;7.950;2022-10-20T08:13:15;13.75;;;8.70;;
72053;SDS011;59918;51.280;7.950;2022-10-20T08:15:41;9.20;;;8.30;;
72053;SDS011;59918;51.280;7.950;2022-10-20T08:18:06;11.23;;;9.07;;
72053;SDS011;59918;51.280;7.950;2022-10-20T08:20:31;9.40;;;8.40;;
72053;SDS011;59918;51.280;7.950;2022-10-20T08:22:57;10.98;;;8.60;;
72053;SDS011;59918;51.280;7.950;2022-10-20T08:25:23;11.43;;;8.18;;
72053;SDS011;59918;51.280;7.950;2022-10-20T08:27:48;8.10;;;7.13;;
72053;SDS011;59918;51.280;7.950;2022-10-20T08:30:14;11.45;;;8.95;;
72053;SDS011;59918;51.280;7.950;2022-10-20T08:32:40;8.02;;;7.03;;
72053;SDS011;59918;51.280;7.950;2022-10-20T08:35:05;17.67;;;7.88;;
72053;SDS011;59918;51.280;7.950;2022-10-20T08:37:31;11.15;;;6.95;;
72053;SDS011;59918;51.280;7.950;2022-10-20T08:39:57;10.15;;;7.10;;
72053;SDS011;59918;51.280;7.950;2022-10-20T08:42:23;9.52;;;7.75;;
72053;SDS011;59918;51.280;7.950;2022-10-20T08:44:48;7.93;;;7.10;;
72053;SDS011;59918;51.280;7.950;2022-10-20T08:47:21;11.02;;;8.80;;
72053;SDS011;59918;51.280;7.950;2022-10-20T08:49:48;11.75;;;7.40;;
72053;SDS011;59918;51.280;7.950;2022-10-20T08:52:13;11.57;;;7.47;;
72053;SDS011;59918;51.280;7.950;2022-10-20T08:54:41;8.65;;;7.05;;
72053;SDS011;59918;51.280;7.950;2022-10-20T08:57:12;9.15;;;7.25;;
72053;SDS011;59918;51.280;7.950;2022-10-20T08:59:44;7.45;;;6.45;;
72053;SDS011;59918;51.280;7.950;2022-10-20T09:02:13;7.63;;;6.72;;
72053;SDS011;59918;51.280;7.950;2022-10-20T09:04:41;12.45;;;6.60;;
72053;SDS011;59918;51.280;7.950;2022-10-20T09:07:33;11.13;;;7.07;;
72053;SDS011;59918;51.280;7.950;2022-10-20T09:12:45;8.15;;;6.53;;
72053;SDS011;59918;51.280;7.950;2022-10-20T09:15:13;9.77;;;6.82;;
72053;SDS011;59918;51.280;7.950;2022-10-20T09:17:40;10.05;;;7.05;;
72053;SDS011;59918;51.280;7.950;2022-10-20T09:20:15;8.20;;;7.40;;
72053;SDS011;59918;51.280;7.950;2022-10-20T09:22:47;11.38;;;7.00;;
72053;SDS011;59918;51.280;7.950;2022-10-20T09:25:16;11.32;;;7.72;;
72053;SDS011;59918;51.280;7.950;2022-10-20T09:27:44;10.13;;;7.78;;
72053;SDS011;59918;51.280;7.950;2022-10-20T09:32:53;13.40;;;7.68;;
72053;SDS011;59918;51.280;7.950;2022-10-20T09:35:22;9.98;;;7.55;;
72053;SDS011;59918;51.280;7.950;2022-10-20T09:37:55;10.25;;;7.32;;
72053;SDS011;59918;51.280;7.950;2022-10-20T09:40:42;12.35;;;7.65;;
72053;SDS011;59918;51.280;7.950;2022-10-20T09:43:10;9.45;;;7.25;;
72053;SDS011;59918;51.280;7.950;2022-10-20T09:45:47;13.15;;;7.97;;
72053;SDS011;59918;51.280;7.950;2022-10-20T09:48:32;7.70;;;6.93;;
72053;SDS011;59918;51.280;7.950;2022-10-20T09:50:59;11.18;;;8.13;;
72053;SDS011;59918;51.280;7.950;2022-10-20T10:01:32;9.27;;;7.53;;
72053;SDS011;59918;51.280;7.950;2022-10-20T10:03:49;8.95;;;6.65;;
72053;SDS011;59918;51.280;7.950;2022-10-20T10:08:53;10.23;;;7.38;;
72053;SDS011;59918;51.280;7.950;2022-10-20T10:11:20;10.02;;;7.80;;
72053;SDS011;59918;51.280;7.950;2022-10-20T10:13:49;9.98;;;8.05;;
72053;SDS011;59918;51.280;7.950;2022-10-20T10:16:18;7.97;;;7.15;;
72053;SDS011;59918;51.280;7.950;2022-10-20T10:19:05;9.98;;;7.18;;
72053;SDS011;59918;51.280;7.950;2022-10-20T10:21:41;10.45;;;7.88;;
72053;SDS011;59918;51.280;7.950;2022-10-20T10:27:20;9.93;;;8.02;;
72053;SDS011;59918;51.280;7.950;2022-10-20T10:29:46;9.48;;;7.20;;
72053;SDS011;59918;51.280;7.950;2022-10-20T10:32:16;10.35;;;8.13;;
72053;SDS011;59918;51.280;7.950;2022-10-20T10:35:05;8.77;;;7.88;;
72053;SDS011;59918;51.280;7.950;2022-10-20T10:37:36;13.45;;;8.23;;
72053;SDS011;59918;51.280;7.950;2022-10-20T10:40:15;13.35;;;8.68;;
72053;SDS011;59918;51.280;7.950;2022-10-20T10:42:54;13.25;;;7.80;;
72053;SDS011;59918;51.280;7.950;2022-10-20T10:45:27;16.38;;;8.27;;
72053;SDS011;59918;51.280;7.950;2022-10-20T10:48:16;8.60;;;7.65;;
72053;SDS011;59918;51.280;7.950;2022-10-20T10:51:25;11.65;;;8.13;;
72053;SDS011;59918;51.280;7.950;2022-10-20T11:02:02;10.38;;;9.00;;
72053;SDS011;59918;51.280;7.950;2022-10-20T11:10:14;11.45;;;8.75;;
72053;SDS011;59918;51.280;7.950;2022-10-20T11:20:54;15.38;;;8.77;;
72053;SDS011;59918;51.280;7.950;2022-10-20T11:26:02;11.30;;;9.20;;
72053;SDS011;59918;51.280;7.950;2022-10-20T11:28:40;10.98;;;9.00;;
72053;SDS011;59918;51.280;7.950;2022-10-20T11:31:15;14.32;;;9.50;;
72053;SDS011;59918;51.280;7.950;2022-10-20T11:33:47;20.65;;;9.80;;
72053;SDS011;59918;51.280;7.950;2022-10-20T11:36:23;13.15;;;9.35;;
72053;SDS011;59918;51.280;7.950;2022-10-20T11:38:51;13.88;;;9.15;;
72053;SDS011;59918;51.280;7.950;2022-10-20T11:41:33;11.43;;;8.68;;
72053;SDS011;59918;51.280;7.950;2022-10-20T11:49:37;9.57;;;8.27;;
72053;SDS011;59918;51.280;7.950;2022-10-20T11:54:50;15.52;;;8.85;;
72053;SDS011;59918;51.280;7.950;2022-10-20T12:14:21;14.13;;;9.27;;
72053;SDS011;59918;51.280;7.950;2022-10-20T12:19:24;12.63;;;8.68;;
72053;SDS011;59918;51.280;7.950;2022-10-20T12:34:54;20.63;;;9.27;;
72053;SDS011;59918;51.280;7.950;2022-10-20T12:39:49;17.60;;;9.93;;
72053;SDS011;59918;51.280;7.950;2022-10-20T12:42:21;12.50;;;10.07;;
72053;SDS011;59918;51.280;7.950;2022-10-20T12:44:48;16.17;;;10.82;;
72053;SDS011;59918;51.280;7.950;2022-10-20T12:47:24;15.50;;;11.23;;
72053;SDS011;59918;51.280;7.950;2022-10-20T12:49:55;16.55;;;10.68;;
72053;SDS011;59918;51.280;7.950;2022-10-20T12:52:28;16.75;;;10.32;;
72053;SDS011;59918;51.280;7.950;2022-10-20T12:55:06;14.55;;;11.50;;
72053;SDS011;59918;51.280;7.950;2022-10-20T12:57:39;17.65;;;10.18;;
72053;SDS011;59918;51.280;7.950;2022-10-20T13:00:06;16.77;;;10.57;;
72053;SDS011;59918;51.280;7.950;2022-10-20T13:02:55;20.35;;;12.32;;
72053;SDS011;59918;51.280;7.950;2022-10-20T13:10:44;19.88;;;11.35;;
72053;SDS011;59918;51.280;7.950;2022-10-20T13:18:16;16.30;;;12.20;;
72053;SDS011;59918;51.280;7.950;2022-10-20T13:23:32;19.80;;;12.40;;
72053;SDS011;59918;51.280;7.950;2022-10-20T13:26:23;23.98;;;14.07;;
72053;SDS011;59918;51.280;7.950;2022-10-20T13:28:51;21.60;;;12.98;;
72053;SDS011;59918;51.280;7.950;2022-10-20T13:39:17;18.27;;;13.97;;
72053;SDS011;59918;51.280;7.950;2022-10-20T13:42:02;25.27;;;14.45;;
72053;SDS011;59918;51.280;7.950;2022-10-20T13:50:15;23.95;;;14.80;;
72053;SDS011;59918;51.280;7.950;2022-10-20T13:53:42;20.75;;;15.00;;
72053;SDS011;59918;51.280;7.950;2022-10-20T13:58:39;19.38;;;13.73;;
72053;SDS011;59918;51.280;7.950;2022-10-20T14:03:42;20.65;;;14.55;;
72053;SDS011;59918;51.280;7.950;2022-10-20T14:08:54;22.05;;;14.90;;
72053;SDS011;59918;51.280;7.950;2022-10-20T14:11:19;21.15;;;14.48;;
72053;SDS011;59918;51.280;7.950;2022-10-20T14:13:46;24.33;;;16.30;;
72053;SDS011;59918;51.280;7.950;2022-10-20T14:16:29;20.30;;;13.90;;
72053;SDS011;59918;51.280;7.950;2022-10-20T14:19:04;21.67;;;14.88;;
72053;SDS011;59918;51.280;7.950;2022-10-20T14:21:38;23.85;;;14.30;;
72053;SDS011;59918;51.280;7.950;2022-10-20T14:24:08;22.75;;;14.45;;
72053;SDS011;59918;51.280;7.950;2022-10-20T14:26:39;27.70;;;15.10;;
72053;SDS011;59918;51.280;7.950;2022-10-20T14:29:07;24.48;;;14.70;;
72053;SDS011;59918;51.280;7.950;2022-10-20T14:31:33;20.55;;;13.63;;
72053;SDS011;59918;51.280;7.950;2022-10-20T14:34:00;21.40;;;14.55;;
72053;SDS011;59918;51.280;7.950;2022-10-20T14:36:27;21.02;;;13.95;;
72053;SDS011;59918;51.280;7.950;2022-10-20T14:38:54;21.13;;;13.70;;
72053;SDS011;59918;51.280;7.950;2022-10-20T14:41:31;25.80;;;14.43;;
72053;SDS011;59918;51.280;7.950;2022-10-20T14:44:03;24.52;;;14.85;;
72053;SDS011;59918;51.280;7.950;2022-10-20T14:46:36;21.85;;;14.80;;
72053;SDS011;59918;51.280;7.950;2022-10-20T14:49:21;22.52;;;15.43;;
72053;SDS011;59918;51.280;7.950;2022-10-20T14:51:57;23.40;;;15.27;;
72053;SDS011;59918;51.280;7.950;2022-10-20T14:54:31;28.58;;;15.10;;
72053;SDS011;59918;51.280;7.950;2022-10-20T14:59:48;16.60;;;13.50;;
72053;SDS011;59918;51.280;7.950;2022-10-20T15:02:15;25.90;;;15.88;;
72053;SDS011;59918;51.280;7.950;2022-10-20T15:04:42;26.40;;;15.38;;
72053;SDS011;59918;51.280;7.950;2022-10-20T15:07:14;27.45;;;16.25;;
72053;SDS011;59918;51.280;7.950;2022-10-20T15:10:01;24.35;;;14.60;;
72053;SDS011;59918;51.280;7.950;2022-10-20T15:12:39;23.92;;;15.20;;
72053;SDS011;59918;51.280;7.950;2022-10-20T15:17:36;27.08;;;15.75;;
72053;SDS011;59918;51.280;7.950;2022-10-20T15:22:54;22.77;;;14.93;;
72053;SDS011;59918;51.280;7.950;2022-10-20T15:25:20;27.23;;;16.92;;
72053;SDS011;59918;51.280;7.950;2022-10-20T15:27:45;27.20;;;17.27;;
72053;SDS011;59918;51.280;7.950;2022-10-20T15:30:17;26.40;;;15.55;;
72053;SDS011;59918;51.280;7.950;2022-10-20T15:32:44;30.02;;;17.65;;
72053;SDS011;59918;51.280;7.950;2022-10-20T15:35:13;23.67;;;14.77;;
72053;SDS011;59918;51.280;7.950;2022-10-20T15:37:39;24.00;;;14.20;;
72053;SDS011;59918;51.280;7.950;2022-10-20T15:40:05;27.02;;;15.68;;
72053;SDS011;59918;51.280;7.950;2022-10-20T15:42:30;23.75;;;15.27;;
72053;SDS011;59918;51.280;7.950;2022-10-20T15:44:55;21.40;;;14.75;;
72053;SDS011;59918;51.280;7.950;2022-10-20T15:47:21;25.60;;;15.18;;
72053;SDS011;59918;51.280;7.950;2022-10-20T15:49:46;20.98;;;15.18;;
72053;SDS011;59918;51.280;7.950;2022-10-20T15:52:11;19.92;;;14.25;;
72053;SDS011;59918;51.280;7.950;2022-10-20T15:54:36;17.27;;;13.68;;
72053;SDS011;59918;51.280;7.950;2022-10-20T15:57:02;18.77;;;12.95;;
72053;SDS011;59918;51.280;7.950;2022-10-20T15:59:27;23.80;;;14.43;;
72053;SDS011;59918;51.280;7.950;2022-10-20T16:01:52;20.42;;;12.65;;
72053;SDS011;59918;51.280;7.950;2022-10-20T16:04:18;21.38;;;13.75;;
72053;SDS011;59918;51.280;7.950;2022-10-20T16:06:45;26.67;;;14.02;;
72053;SDS011;59918;51.280;7.950;2022-10-20T16:09:11;21.65;;;13.55;;
72053;SDS011;59918;51.280;7.950;2022-10-20T16:11:36;28.88;;;15.00;;
72053;SDS011;59918;51.280;7.950;2022-10-20T16:14:01;23.60;;;14.65;;
72053;SDS011;59918;51.280;7.950;2022-10-20T16:16:27;20.23;;;14.27;;
72053;SDS011;59918;51.280;7.950;2022-10-20T16:18:52;19.08;;;13.88;;
72053;SDS011;59918;51.280;7.950;2022-10-20T16:21:17;21.95;;;14.18;;
72053;SDS011;59918;51.280;7.950;2022-10-20T16:23:42;20.75;;;13.75;;
72053;SDS011;59918;51.280;7.950;2022-10-20T16:26:10;24.60;;;13.95;;
72053;SDS011;59918;51.280;7.950;2022-10-20T16:28:37;19.63;;;13.05;;
72053;SDS011;59918;51.280;7.950;2022-10-20T16:31:07;20.88;;;13.52;;
72053;SDS011;59918;51.280;7.950;2022-10-20T16:33:34;20.73;;;12.93;;
72053;SDS011;59918;51.280;7.950;2022-10-20T16:36:06;17.52;;;12.93;;
72053;SDS011;59918;51.280;7.950;2022-10-20T16:38:33;21.45;;;12.88;;
72053;SDS011;59918;51.280;7.950;2022-10-20T16:41:00;23.70;;;13.55;;
72053;SDS011;59918;51.280;7.950;2022-10-20T16:43:27;16.60;;;12.30;;
72053;SDS011;59918;51.280;7.950;2022-10-20T16:45:53;20.88;;;13.07;;
72053;SDS011;59918;51.280;7.950;2022-10-20T16:48:18;20.50;;;13.43;;
72053;SDS011;59918;51.280;7.950;2022-10-20T16:50:44;18.13;;;13.30;;
72053;SDS011;59918;51.280;7.950;2022-10-20T16:53:09;23.77;;;12.32;;
72053;SDS011;59918;51.280;7.950;2022-10-20T16:55:34;21.15;;;13.10;;
72053;SDS011;59918;51.280;7.950;2022-10-20T16:58:02;22.70;;;13.20;;
72053;SDS011;59918;51.280;7.950;2022-10-20T17:00:27;22.20;;;12.88;;
72053;SDS011;59918;51.280;7.950;2022-10-20T17:02:53;21.02;;;13.20;;
72053;SDS011;59918;51.280;7.950;2022-10-20T17:05:18;19.88;;;12.95;;
72053;SDS011;59918;51.280;7.950;2022-10-20T17:07:43;21.15;;;11.55;;
72053;SDS011;59918;51.280;7.950;2022-10-20T17:10:09;21.80;;;12.60;;
72053;SDS011;59918;51.280;7.950;2022-10-20T17:12:34;19.20;;;11.98;;
72053;SDS011;59918;51.280;7.950;2022-10-20T17:14:59;25.08;;;11.82;;
72053;SDS011;59918;51.280;7.950;2022-10-20T17:17:25;18.73;;;12.80;;
72053;SDS011;59918;51.280;7.950;2022-10-20T17:19:50;21.35;;;12.73;;
72053;SDS011;59918;51.280;7.950;2022-10-20T17:22:15;20.40;;;12.55;;
72053;SDS011;59918;51.280;7.950;2022-10-20T17:24:41;19.92;;;12.68;;